sensor_id;sensor_type;location;lat;lon;timestamp;temperature;humidity
37560;DHT22;23398;50.928;7.084;2023-02-01T00:01:57;10.30;88.80
37560;DHT22;23398;50.928;7.084;2023-02-01T00:04:22;10.30;88.60
37560;DHT22;23398;50.928;7.084;2023-02-01T00:06:48;10.30;88.00
37560;DHT22;23398;50.928;7.084;2023-02-01T00:09:14;10.60;87.90
37560;DHT22;23398;50.928;7.084;2023-02-01T00:11:40;10.30;87.00
37560;DHT22;23398;50.928;7.084;2023-02-01T00:14:05;10.30;86.20
37560;DHT22;23398;50.928;7.084;2023-02-01T00:16:31;10.30;85.60
37560;DHT22;23398;50.928;7.084;2023-02-01T00:19:05;10.20;85.00
37560;DHT22;23398;50.928;7.084;2023-02-01T00:21:31;10.20;85.00
37560;DHT22;23398;50.928;7.084;2023-02-01T00:23:57;10.10;85.00
37560;DHT22;23398;50.928;7.084;2023-02-01T00:26:30;10.10;85.10
37560;DHT22;23398;50.928;7.084;2023-02-01T00:28:56;10.00;85.10
37560;DHT22;23398;50.928;7.084;2023-02-01T00:31:22;10.00;85.80
37560;DHT22;23398;50.928;7.084;2023-02-01T00:33:48;9.90;85.90
37560;DHT22;23398;50.928;7.084;2023-02-01T00:36:14;9.80;85.80
37560;DHT22;23398;50.928;7.084;2023-02-01T00:38:40;9.80;86.10
37560;DHT22;23398;50.928;7.084;2023-02-01T00:41:08;9.70;86.20
37560;DHT22;23398;50.928;7.084;2023-02-01T00:43:35;9.70;86.80
37560;DHT22;23398;50.928;7.084;2023-02-01T00:46:01;9.60;87.00
37560;DHT22;23398;50.928;7.084;2023-02-01T00:48:26;9.60;87.30
37560;DHT22;23398;50.928;7.084;2023-02-01T00:50:52;9.50;87.40
37560;DHT22;23398;50.928;7.084;2023-02-01T00:53:18;9.50;87.50
37560;DHT22;23398;50.928;7.084;2023-02-01T00:55:48;9.50;87.70
37560;DHT22;23398;50.928;7.084;2023-02-01T00:58:14;9.40;88.20
37560;DHT22;23398;50.928;7.084;2023-02-01T01:00:40;9.40;88.40
37560;DHT22;23398;50.928;7.084;2023-02-01T01:03:06;9.40;88.60
37560;DHT22;23398;50.928;7.084;2023-02-01T01:05:47;9.40;88.90
37560;DHT22;23398;50.928;7.084;2023-02-01T01:08:14;9.40;89.00
37560;DHT22;23398;50.928;7.084;2023-02-01T01:10:40;9.50;89.00
37560;DHT22;23398;50.928;7.084;2023-02-01T01:13:07;9.50;88.90
37560;DHT22;23398;50.928;7.084;2023-02-01T01:15:37;9.50;88.70
37560;DHT22;23398;50.928;7.084;2023-02-01T01:18:03;9.60;88.80
37560;DHT22;23398;50.928;7.084;2023-02-01T01:20:29;9.60;88.50
37560;DHT22;23398;50.928;7.084;2023-02-01T01:22:54;9.60;88.30
37560;DHT22;23398;50.928;7.084;2023-02-01T01:25:20;9.70;87.90
37560;DHT22;23398;50.928;7.084;2023-02-01T01:27:46;9.70;87.60
37560;DHT22;23398;50.928;7.084;2023-02-01T01:30:12;9.70;87.10
37560;DHT22;23398;50.928;7.084;2023-02-01T01:32:37;9.80;86.70
37560;DHT22;23398;50.928;7.084;2023-02-01T01:35:03;9.80;86.10
37560;DHT22;23398;50.928;7.084;2023-02-01T01:37:29;9.80;85.70
37560;DHT22;23398;50.928;7.084;2023-02-01T01:39:55;9.80;85.40
37560;DHT22;23398;50.928;7.084;2023-02-01T01:42:21;9.90;85.10
37560;DHT22;23398;50.928;7.084;2023-02-01T01:47:33;9.90;83.90
37560;DHT22;23398;50.928;7.084;2023-02-01T01:50:01;9.90;83.60
37560;DHT22;23398;50.928;7.084;2023-02-01T01:52:28;9.90;83.20
37560;DHT22;23398;50.928;7.084;2023-02-01T01:54:54;9.90;82.80
37560;DHT22;23398;50.928;7.084;2023-02-01T01:57:44;9.90;82.10
37560;DHT22;23398;50.928;7.084;2023-02-01T02:00:14;9.90;81.60
37560;DHT22;23398;50.928;7.084;2023-02-01T02:02:43;9.90;81.00
37560;DHT22;23398;50.928;7.084;2023-02-01T02:05:10;9.90;80.30
37560;DHT22;23398;50.928;7.084;2023-02-01T02:07:40;9.90;80.00
37560;DHT22;23398;50.928;7.084;2023-02-01T02:10:09;9.80;79.70
37560;DHT22;23398;50.928;7.084;2023-02-01T02:12:39;9.80;79.50
37560;DHT22;23398;50.928;7.084;2023-02-01T02:15:07;9.80;79.50
37560;DHT22;23398;50.928;7.084;2023-02-01T02:18:05;9.70;79.40
37560;DHT22;23398;50.928;7.084;2023-02-01T02:21:07;9.70;79.50
37560;DHT22;23398;50.928;7.084;2023-02-01T02:26:34;9.70;79.80
37560;DHT22;23398;50.928;7.084;2023-02-01T02:29:28;9.70;80.00
37560;DHT22;23398;50.928;7.084;2023-02-01T02:34:55;9.70;79.90
37560;DHT22;23398;50.928;7.084;2023-02-01T02:37:40;9.70;80.00
37560;DHT22;23398;50.928;7.084;2023-02-01T02:40:24;9.70;79.90
37560;DHT22;23398;50.928;7.084;2023-02-01T02:43:22;9.70;79.90
37560;DHT22;23398;50.928;7.084;2023-02-01T02:46:22;9.70;80.00
37560;DHT22;23398;50.928;7.084;2023-02-01T02:49:12;9.70;80.00
37560;DHT22;23398;50.928;7.084;2023-02-01T02:51:52;9.70;80.00
37560;DHT22;23398;50.928;7.084;2023-02-01T02:54:43;9.70;80.00
37560;DHT22;23398;50.928;7.084;2023-02-01T02:57:34;9.70;80.20
37560;DHT22;23398;50.928;7.084;2023-02-01T03:00:24;9.70;80.10
37560;DHT22;23398;50.928;7.084;2023-02-01T03:03:10;9.70;80.00
37560;DHT22;23398;50.928;7.084;2023-02-01T03:05:55;9.80;80.00
37560;DHT22;23398;50.928;7.084;2023-02-01T03:08:24;9.80;80.00
37560;DHT22;23398;50.928;7.084;2023-02-01T03:11:09;9.80;79.80
37560;DHT22;23398;50.928;7.084;2023-02-01T03:13:51;9.80;79.90
37560;DHT22;23398;50.928;7.084;2023-02-01T03:19:05;9.80;79.50
37560;DHT22;23398;50.928;7.084;2023-02-01T03:21:38;9.80;79.40
37560;DHT22;23398;50.928;7.084;2023-02-01T03:24:18;9.80;79.30
37560;DHT22;23398;50.928;7.084;2023-02-01T03:26:53;9.80;79.20
37560;DHT22;23398;50.928;7.084;2023-02-01T03:29:23;9.80;79.20
37560;DHT22;23398;50.928;7.084;2023-02-01T03:31:50;9.80;80.10
37560;DHT22;23398;50.928;7.084;2023-02-01T03:34:15;9.80;79.40
37560;DHT22;23398;50.928;7.084;2023-02-01T03:37:06;9.80;79.30
37560;DHT22;23398;50.928;7.084;2023-02-01T03:39:46;9.80;79.20
37560;DHT22;23398;50.928;7.084;2023-02-01T03:42:20;9.80;79.30
37560;DHT22;23398;50.928;7.084;2023-02-01T03:44:51;9.80;79.30
37560;DHT22;23398;50.928;7.084;2023-02-01T03:47:25;9.80;79.40
37560;DHT22;23398;50.928;7.084;2023-02-01T03:52:36;9.80;79.10
37560;DHT22;23398;50.928;7.084;2023-02-01T03:55:05;9.90;79.10
37560;DHT22;23398;50.928;7.084;2023-02-01T03:57:34;9.80;79.00
37560;DHT22;23398;50.928;7.084;2023-02-01T04:00:15;9.80;78.90
37560;DHT22;23398;50.928;7.084;2023-02-01T04:02:41;9.80;78.70
37560;DHT22;23398;50.928;7.084;2023-02-01T04:05:07;9.80;78.70
37560;DHT22;23398;50.928;7.084;2023-02-01T04:07:33;9.80;78.60
37560;DHT22;23398;50.928;7.084;2023-02-01T04:09:58;9.80;78.60
37560;DHT22;23398;50.928;7.084;2023-02-01T04:12:24;9.80;78.60
37560;DHT22;23398;50.928;7.084;2023-02-01T04:14:50;9.80;78.70
37560;DHT22;23398;50.928;7.084;2023-02-01T04:17:15;9.70;78.70
37560;DHT22;23398;50.928;7.084;2023-02-01T04:19:41;9.70;78.70
37560;DHT22;23398;50.928;7.084;2023-02-01T04:22:06;9.70;78.70
37560;DHT22;23398;50.928;7.084;2023-02-01T04:24:32;9.80;78.70
37560;DHT22;23398;50.928;7.084;2023-02-01T04:26:57;9.80;78.60
37560;DHT22;23398;50.928;7.084;2023-02-01T04:29:23;10.10;77.80
37560;DHT22;23398;50.928;7.084;2023-02-01T04:31:48;9.80;78.50
37560;DHT22;23398;50.928;7.084;2023-02-01T04:34:15;9.80;78.50
37560;DHT22;23398;50.928;7.084;2023-02-01T04:36:41;9.80;78.40
37560;DHT22;23398;50.928;7.084;2023-02-01T04:39:08;9.80;78.20
37560;DHT22;23398;50.928;7.084;2023-02-01T04:41:33;9.80;78.10
37560;DHT22;23398;50.928;7.084;2023-02-01T04:43:59;9.80;78.00
37560;DHT22;23398;50.928;7.084;2023-02-01T04:46:25;10.10;77.00
37560;DHT22;23398;50.928;7.084;2023-02-01T04:48:50;9.90;77.80
37560;DHT22;23398;50.928;7.084;2023-02-01T04:51:16;9.90;77.50
37560;DHT22;23398;50.928;7.084;2023-02-01T04:53:43;9.90;77.20
37560;DHT22;23398;50.928;7.084;2023-02-01T04:56:09;9.90;76.90
37560;DHT22;23398;50.928;7.084;2023-02-01T04:58:35;9.80;76.50
37560;DHT22;23398;50.928;7.084;2023-02-01T05:01:04;9.80;76.10
37560;DHT22;23398;50.928;7.084;2023-02-01T05:03:32;9.80;75.70
37560;DHT22;23398;50.928;7.084;2023-02-01T05:05:58;9.70;75.50
37560;DHT22;23398;50.928;7.084;2023-02-01T05:08:24;9.70;75.40
37560;DHT22;23398;50.928;7.084;2023-02-01T05:10:51;9.60;75.30
37560;DHT22;23398;50.928;7.084;2023-02-01T05:13:16;9.50;75.30
37560;DHT22;23398;50.928;7.084;2023-02-01T05:16:01;9.40;75.30
37560;DHT22;23398;50.928;7.084;2023-02-01T05:18:26;9.30;75.30
37560;DHT22;23398;50.928;7.084;2023-02-01T05:20:52;9.30;75.60
37560;DHT22;23398;50.928;7.084;2023-02-01T05:23:17;9.10;75.70
37560;DHT22;23398;50.928;7.084;2023-02-01T05:25:43;9.10;75.90
37560;DHT22;23398;50.928;7.084;2023-02-01T05:28:08;9.00;76.10
37560;DHT22;23398;50.928;7.084;2023-02-01T05:30:34;8.90;76.20
37560;DHT22;23398;50.928;7.084;2023-02-01T05:33:01;8.90;76.40
37560;DHT22;23398;50.928;7.084;2023-02-01T05:35:27;8.80;76.60
37560;DHT22;23398;50.928;7.084;2023-02-01T05:37:52;8.80;76.70
37560;DHT22;23398;50.928;7.084;2023-02-01T05:40:18;8.70;76.80
37560;DHT22;23398;50.928;7.084;2023-02-01T05:42:43;8.70;76.90
37560;DHT22;23398;50.928;7.084;2023-02-01T05:45:09;8.60;77.00
37560;DHT22;23398;50.928;7.084;2023-02-01T05:47:35;8.60;77.10
37560;DHT22;23398;50.928;7.084;2023-02-01T05:50:01;8.60;77.20
37560;DHT22;23398;50.928;7.084;2023-02-01T05:52:26;8.50;77.20
37560;DHT22;23398;50.928;7.084;2023-02-01T05:54:52;8.50;77.20
37560;DHT22;23398;50.928;7.084;2023-02-01T05:57:18;8.50;77.40
37560;DHT22;23398;50.928;7.084;2023-02-01T05:59:43;8.40;77.50
37560;DHT22;23398;50.928;7.084;2023-02-01T06:02:13;8.40;77.60
37560;DHT22;23398;50.928;7.084;2023-02-01T06:04:39;8.30;77.60
37560;DHT22;23398;50.928;7.084;2023-02-01T06:07:05;8.40;77.90
37560;DHT22;23398;50.928;7.084;2023-02-01T06:09:32;8.30;78.00
37560;DHT22;23398;50.928;7.084;2023-02-01T06:11:57;8.40;78.30
37560;DHT22;23398;50.928;7.084;2023-02-01T06:14:23;8.40;78.50
37560;DHT22;23398;50.928;7.084;2023-02-01T06:16:49;8.40;78.80
37560;DHT22;23398;50.928;7.084;2023-02-01T06:19:15;8.40;78.80
37560;DHT22;23398;50.928;7.084;2023-02-01T06:21:41;8.50;78.90
37560;DHT22;23398;50.928;7.084;2023-02-01T06:24:06;8.50;78.60
37560;DHT22;23398;50.928;7.084;2023-02-01T06:26:32;8.50;78.20
37560;DHT22;23398;50.928;7.084;2023-02-01T06:28:58;8.50;78.00
37560;DHT22;23398;50.928;7.084;2023-02-01T06:31:24;8.50;77.80
37560;DHT22;23398;50.928;7.084;2023-02-01T06:33:51;8.50;77.70
37560;DHT22;23398;50.928;7.084;2023-02-01T06:36:17;8.50;77.60
37560;DHT22;23398;50.928;7.084;2023-02-01T06:38:44;8.50;77.40
37560;DHT22;23398;50.928;7.084;2023-02-01T06:41:10;8.40;77.30
37560;DHT22;23398;50.928;7.084;2023-02-01T06:43:36;8.40;77.40
37560;DHT22;23398;50.928;7.084;2023-02-01T06:46:04;8.40;77.90
37560;DHT22;23398;50.928;7.084;2023-02-01T06:48:31;8.40;77.60
37560;DHT22;23398;50.928;7.084;2023-02-01T06:50:57;8.40;77.90
37560;DHT22;23398;50.928;7.084;2023-02-01T06:53:23;8.40;78.20
37560;DHT22;23398;50.928;7.084;2023-02-01T06:55:59;8.40;78.60
37560;DHT22;23398;50.928;7.084;2023-02-01T06:58:33;8.40;79.10
37560;DHT22;23398;50.928;7.084;2023-02-01T07:01:04;8.50;79.50
37560;DHT22;23398;50.928;7.084;2023-02-01T07:03:30;8.60;79.90
37560;DHT22;23398;50.928;7.084;2023-02-01T07:05:57;8.60;79.90
37560;DHT22;23398;50.928;7.084;2023-02-01T07:08:24;8.70;79.90
37560;DHT22;23398;50.928;7.084;2023-02-01T07:10:51;8.70;79.70
37560;DHT22;23398;50.928;7.084;2023-02-01T07:13:17;8.80;79.70
37560;DHT22;23398;50.928;7.084;2023-02-01T07:15:42;8.90;79.50
37560;DHT22;23398;50.928;7.084;2023-02-01T07:18:08;9.00;79.30
37560;DHT22;23398;50.928;7.084;2023-02-01T07:20:33;9.10;78.50
37560;DHT22;23398;50.928;7.084;2023-02-01T07:22:59;9.10;79.10
37560;DHT22;23398;50.928;7.084;2023-02-01T07:25:26;9.20;78.90
37560;DHT22;23398;50.928;7.084;2023-02-01T07:27:52;9.20;78.70
37560;DHT22;23398;50.928;7.084;2023-02-01T07:30:17;9.30;78.50
37560;DHT22;23398;50.928;7.084;2023-02-01T07:32:43;9.40;78.50
37560;DHT22;23398;50.928;7.084;2023-02-01T07:35:09;9.40;78.20
37560;DHT22;23398;50.928;7.084;2023-02-01T07:37:34;9.50;78.20
37560;DHT22;23398;50.928;7.084;2023-02-01T07:40:00;9.50;78.00
37560;DHT22;23398;50.928;7.084;2023-02-01T07:42:26;9.50;77.80
37560;DHT22;23398;50.928;7.084;2023-02-01T07:44:51;9.60;77.60
37560;DHT22;23398;50.928;7.084;2023-02-01T07:47:17;9.60;77.50
37560;DHT22;23398;50.928;7.084;2023-02-01T07:49:42;9.70;77.50
37560;DHT22;23398;50.928;7.084;2023-02-01T07:52:08;9.70;77.20
37560;DHT22;23398;50.928;7.084;2023-02-01T07:54:33;9.80;77.10
37560;DHT22;23398;50.928;7.084;2023-02-01T07:56:59;9.80;76.80
37560;DHT22;23398;50.928;7.084;2023-02-01T07:59:24;9.80;77.20
37560;DHT22;23398;50.928;7.084;2023-02-01T08:01:50;9.80;76.10
37560;DHT22;23398;50.928;7.084;2023-02-01T08:04:15;9.90;76.00
37560;DHT22;23398;50.928;7.084;2023-02-01T08:06:41;9.90;75.90
37560;DHT22;23398;50.928;7.084;2023-02-01T08:09:07;9.90;75.70
37560;DHT22;23398;50.928;7.084;2023-02-01T08:11:33;9.90;75.70
37560;DHT22;23398;50.928;7.084;2023-02-01T08:13:59;10.00;74.60
37560;DHT22;23398;50.928;7.084;2023-02-01T08:16:25;10.10;74.70
37560;DHT22;23398;50.928;7.084;2023-02-01T08:18:52;10.00;74.30
37560;DHT22;23398;50.928;7.084;2023-02-01T08:21:23;10.10;74.20
37560;DHT22;23398;50.928;7.084;2023-02-01T08:23:49;10.10;73.90
37560;DHT22;23398;50.928;7.084;2023-02-01T08:26:22;10.10;73.80
37560;DHT22;23398;50.928;7.084;2023-02-01T08:28:54;10.20;73.70
37560;DHT22;23398;50.928;7.084;2023-02-01T08:31:21;10.20;73.50
37560;DHT22;23398;50.928;7.084;2023-02-01T08:33:50;10.20;73.20
37560;DHT22;23398;50.928;7.084;2023-02-01T08:36:15;10.20;73.00
37560;DHT22;23398;50.928;7.084;2023-02-01T08:38:41;10.20;73.10
37560;DHT22;23398;50.928;7.084;2023-02-01T08:41:14;10.30;73.10
37560;DHT22;23398;50.928;7.084;2023-02-01T08:43:41;10.40;73.00
37560;DHT22;23398;50.928;7.084;2023-02-01T08:46:07;10.30;72.80
37560;DHT22;23398;50.928;7.084;2023-02-01T08:48:33;10.30;72.60
37560;DHT22;23398;50.928;7.084;2023-02-01T08:51:07;10.30;72.60
37560;DHT22;23398;50.928;7.084;2023-02-01T08:53:33;10.30;72.60
37560;DHT22;23398;50.928;7.084;2023-02-01T08:56:01;10.40;72.80
37560;DHT22;23398;50.928;7.084;2023-02-01T08:58:26;10.40;73.30
37560;DHT22;23398;50.928;7.084;2023-02-01T09:00:52;10.70;72.90
37560;DHT22;23398;50.928;7.084;2023-02-01T09:03:18;10.40;72.50
37560;DHT22;23398;50.928;7.084;2023-02-01T09:05:43;10.50;72.70
37560;DHT22;23398;50.928;7.084;2023-02-01T09:08:10;10.50;72.80
37560;DHT22;23398;50.928;7.084;2023-02-01T09:10:37;10.60;73.00
37560;DHT22;23398;50.928;7.084;2023-02-01T09:13:03;10.70;72.90
37560;DHT22;23398;50.928;7.084;2023-02-01T09:15:29;10.70;72.80
37560;DHT22;23398;50.928;7.084;2023-02-01T09:17:54;10.80;72.50
37560;DHT22;23398;50.928;7.084;2023-02-01T09:20:20;10.90;72.30
37560;DHT22;23398;50.928;7.084;2023-02-01T09:22:50;11.00;72.10
37560;DHT22;23398;50.928;7.084;2023-02-01T09:25:15;11.10;72.00
37560;DHT22;23398;50.928;7.084;2023-02-01T09:27:41;11.10;71.60
37560;DHT22;23398;50.928;7.084;2023-02-01T09:30:07;11.20;71.30
37560;DHT22;23398;50.928;7.084;2023-02-01T09:32:33;11.30;71.30
37560;DHT22;23398;50.928;7.084;2023-02-01T09:34:58;11.30;70.90
37560;DHT22;23398;50.928;7.084;2023-02-01T09:37:24;11.40;70.50
37560;DHT22;23398;50.928;7.084;2023-02-01T09:39:50;11.50;70.50
37560;DHT22;23398;50.928;7.084;2023-02-01T09:42:52;11.50;70.10
37560;DHT22;23398;50.928;7.084;2023-02-01T09:48:19;11.50;69.30
37560;DHT22;23398;50.928;7.084;2023-02-01T09:50:56;11.60;69.30
37560;DHT22;23398;50.928;7.084;2023-02-01T09:58:45;11.60;68.40
37560;DHT22;23398;50.928;7.084;2023-02-01T10:01:22;11.60;69.30
37560;DHT22;23398;50.928;7.084;2023-02-01T10:03:49;11.60;69.10
37560;DHT22;23398;50.928;7.084;2023-02-01T10:09:25;11.60;68.70
37560;DHT22;23398;50.928;7.084;2023-02-01T10:12:09;11.70;68.80
37560;DHT22;23398;50.928;7.084;2023-02-01T10:26:20;11.70;68.70
37560;DHT22;23398;50.928;7.084;2023-02-01T10:28:52;11.80;69.50
37560;DHT22;23398;50.928;7.084;2023-02-01T10:31:19;11.90;69.80
37560;DHT22;23398;50.928;7.084;2023-02-01T10:33:50;12.10;70.30
37560;DHT22;23398;50.928;7.084;2023-02-01T10:36:32;12.20;70.20
37560;DHT22;23398;50.928;7.084;2023-02-01T10:39:02;12.40;69.30
37560;DHT22;23398;50.928;7.084;2023-02-01T10:41:35;12.60;70.30
37560;DHT22;23398;50.928;7.084;2023-02-01T10:44:04;12.80;68.90
37560;DHT22;23398;50.928;7.084;2023-02-01T10:46:31;13.00;68.40
37560;DHT22;23398;50.928;7.084;2023-02-01T10:49:00;13.20;68.30
37560;DHT22;23398;50.928;7.084;2023-02-01T10:51:35;13.40;68.00
37560;DHT22;23398;50.928;7.084;2023-02-01T10:54:11;13.60;67.60
37560;DHT22;23398;50.928;7.084;2023-02-01T10:56:38;13.80;67.10
37560;DHT22;23398;50.928;7.084;2023-02-01T10:59:06;13.90;66.90
37560;DHT22;23398;50.928;7.084;2023-02-01T11:01:42;14.10;66.60
37560;DHT22;23398;50.928;7.084;2023-02-01T11:04:12;14.40;66.10
37560;DHT22;23398;50.928;7.084;2023-02-01T11:06:43;14.40;65.50
37560;DHT22;23398;50.928;7.084;2023-02-01T11:16:59;15.10;63.20
37560;DHT22;23398;50.928;7.084;2023-02-01T11:19:26;14.90;62.70
37560;DHT22;23398;50.928;7.084;2023-02-01T11:21:57;14.80;62.30
37560;DHT22;23398;50.928;7.084;2023-02-01T11:24:32;14.80;61.60
37560;DHT22;23398;50.928;7.084;2023-02-01T11:27:02;14.70;61.00
37560;DHT22;23398;50.928;7.084;2023-02-01T11:29:44;14.70;61.30
37560;DHT22;23398;50.928;7.084;2023-02-01T11:32:12;14.40;60.70
37560;DHT22;23398;50.928;7.084;2023-02-01T11:37:24;14.20;61.80
37560;DHT22;23398;50.928;7.084;2023-02-01T11:39:58;14.10;61.00
37560;DHT22;23398;50.928;7.084;2023-02-01T11:42:25;13.90;61.10
37560;DHT22;23398;50.928;7.084;2023-02-01T11:45:16;13.90;61.70
37560;DHT22;23398;50.928;7.084;2023-02-01T11:47:42;13.70;61.30
37560;DHT22;23398;50.928;7.084;2023-02-01T11:50:23;13.70;62.30
37560;DHT22;23398;50.928;7.084;2023-02-01T11:53:31;14.00;62.10
37560;DHT22;23398;50.928;7.084;2023-02-01T11:58:59;13.70;62.10
37560;DHT22;23398;50.928;7.084;2023-02-01T12:04:37;13.60;61.50
37560;DHT22;23398;50.928;7.084;2023-02-01T12:07:22;13.60;61.70
37560;DHT22;23398;50.928;7.084;2023-02-01T12:15:03;13.50;61.50
37560;DHT22;23398;50.928;7.084;2023-02-01T12:20:25;13.40;62.00
37560;DHT22;23398;50.928;7.084;2023-02-01T12:31:16;13.30;61.40
37560;DHT22;23398;50.928;7.084;2023-02-01T12:34:10;13.30;61.60
37560;DHT22;23398;50.928;7.084;2023-02-01T12:39:39;13.20;62.60
37560;DHT22;23398;50.928;7.084;2023-02-01T12:42:21;13.10;62.00
37560;DHT22;23398;50.928;7.084;2023-02-01T12:47:26;13.10;62.40
37560;DHT22;23398;50.928;7.084;2023-02-01T12:50:03;13.20;62.50
37560;DHT22;23398;50.928;7.084;2023-02-01T12:52:38;13.20;62.30
37560;DHT22;23398;50.928;7.084;2023-02-01T12:55:16;13.20;62.20
37560;DHT22;23398;50.928;7.084;2023-02-01T12:57:46;13.20;62.00
37560;DHT22;23398;50.928;7.084;2023-02-01T13:00:40;13.10;61.90
37560;DHT22;23398;50.928;7.084;2023-02-01T13:03:25;13.10;62.40
37560;DHT22;23398;50.928;7.084;2023-02-01T13:05:59;13.10;61.80
37560;DHT22;23398;50.928;7.084;2023-02-01T13:08:42;13.10;61.80
37560;DHT22;23398;50.928;7.084;2023-02-01T13:11:38;13.00;61.50
37560;DHT22;23398;50.928;7.084;2023-02-01T13:17:23;12.90;61.50
37560;DHT22;23398;50.928;7.084;2023-02-01T13:20:06;12.90;61.60
37560;DHT22;23398;50.928;7.084;2023-02-01T13:22:42;12.80;61.90
37560;DHT22;23398;50.928;7.084;2023-02-01T13:25:26;12.80;61.90
37560;DHT22;23398;50.928;7.084;2023-02-01T13:27:55;12.70;62.00
37560;DHT22;23398;50.928;7.084;2023-02-01T13:30:29;12.70;62.30
37560;DHT22;23398;50.928;7.084;2023-02-01T13:43:38;12.50;62.80
37560;DHT22;23398;50.928;7.084;2023-02-01T13:46:08;12.40;62.80
37560;DHT22;23398;50.928;7.084;2023-02-01T13:48:59;12.40;63.10
37560;DHT22;23398;50.928;7.084;2023-02-01T13:51:44;12.30;63.10
37560;DHT22;23398;50.928;7.084;2023-02-01T13:56:52;12.30;63.60
37560;DHT22;23398;50.928;7.084;2023-02-01T13:59:49;12.30;63.90
37560;DHT22;23398;50.928;7.084;2023-02-01T14:05:03;12.30;63.60
37560;DHT22;23398;50.928;7.084;2023-02-01T14:07:30;12.30;64.50
37560;DHT22;23398;50.928;7.084;2023-02-01T14:09:56;12.20;63.80
37560;DHT22;23398;50.928;7.084;2023-02-01T14:15:20;12.20;63.60
37560;DHT22;23398;50.928;7.084;2023-02-01T14:17:47;12.20;63.60
37560;DHT22;23398;50.928;7.084;2023-02-01T14:20:42;12.20;63.80
37560;DHT22;23398;50.928;7.084;2023-02-01T14:23:13;12.20;63.60
37560;DHT22;23398;50.928;7.084;2023-02-01T14:25:40;12.20;63.70
37560;DHT22;23398;50.928;7.084;2023-02-01T14:28:24;12.20;63.70
37560;DHT22;23398;50.928;7.084;2023-02-01T14:30:50;12.20;63.50
37560;DHT22;23398;50.928;7.084;2023-02-01T14:33:21;12.20;64.50
37560;DHT22;23398;50.928;7.084;2023-02-01T14:36:06;12.20;63.60
37560;DHT22;23398;50.928;7.084;2023-02-01T14:38:33;12.20;63.30
37560;DHT22;23398;50.928;7.084;2023-02-01T14:41:21;12.20;63.70
37560;DHT22;23398;50.928;7.084;2023-02-01T14:50:03;12.20;63.30
37560;DHT22;23398;50.928;7.084;2023-02-01T14:52:35;12.20;63.40
37560;DHT22;23398;50.928;7.084;2023-02-01T14:55:06;12.20;63.40
37560;DHT22;23398;50.928;7.084;2023-02-01T14:57:37;12.20;63.40
37560;DHT22;23398;50.928;7.084;2023-02-01T15:00:28;12.20;63.30
37560;DHT22;23398;50.928;7.084;2023-02-01T15:02:55;12.20;63.20
37560;DHT22;23398;50.928;7.084;2023-02-01T15:05:28;12.20;63.30
37560;DHT22;23398;50.928;7.084;2023-02-01T15:08:07;12.20;63.20
37560;DHT22;23398;50.928;7.084;2023-02-01T15:10:42;12.20;63.10
37560;DHT22;23398;50.928;7.084;2023-02-01T15:13:22;12.20;63.20
37560;DHT22;23398;50.928;7.084;2023-02-01T15:16:09;12.20;63.10
37560;DHT22;23398;50.928;7.084;2023-02-01T15:18:36;12.20;63.00
37560;DHT22;23398;50.928;7.084;2023-02-01T15:21:03;12.20;63.30
37560;DHT22;23398;50.928;7.084;2023-02-01T15:23:29;12.20;63.30
37560;DHT22;23398;50.928;7.084;2023-02-01T15:25:55;12.20;63.20
37560;DHT22;23398;50.928;7.084;2023-02-01T15:28:21;12.20;63.30
37560;DHT22;23398;50.928;7.084;2023-02-01T15:33:19;12.50;63.30
37560;DHT22;23398;50.928;7.084;2023-02-01T15:43:27;12.10;63.00
37560;DHT22;23398;50.928;7.084;2023-02-01T15:45:58;12.50;63.60
37560;DHT22;23398;50.928;7.084;2023-02-01T15:48:27;12.40;63.60
37560;DHT22;23398;50.928;7.084;2023-02-01T15:50:54;12.10;63.40
37560;DHT22;23398;50.928;7.084;2023-02-01T15:53:24;12.10;63.30
37560;DHT22;23398;50.928;7.084;2023-02-01T15:55:55;12.10;63.20
37560;DHT22;23398;50.928;7.084;2023-02-01T15:58:23;12.10;63.20
37560;DHT22;23398;50.928;7.084;2023-02-01T16:00:58;12.10;63.30
37560;DHT22;23398;50.928;7.084;2023-02-01T16:03:39;12.10;63.10
37560;DHT22;23398;50.928;7.084;2023-02-01T16:06:12;12.10;63.00
37560;DHT22;23398;50.928;7.084;2023-02-01T16:08:49;12.10;63.20
37560;DHT22;23398;50.928;7.084;2023-02-01T16:11:52;12.00;63.00
37560;DHT22;23398;50.928;7.084;2023-02-01T16:14:19;12.10;62.90
37560;DHT22;23398;50.928;7.084;2023-02-01T16:16:44;12.10;63.40
37560;DHT22;23398;50.928;7.084;2023-02-01T16:19:10;12.10;63.40
37560;DHT22;23398;50.928;7.084;2023-02-01T16:21:35;12.10;63.40
37560;DHT22;23398;50.928;7.084;2023-02-01T16:24:01;12.10;63.50
37560;DHT22;23398;50.928;7.084;2023-02-01T16:26:33;12.10;63.40
37560;DHT22;23398;50.928;7.084;2023-02-01T16:28:59;12.10;63.50
37560;DHT22;23398;50.928;7.084;2023-02-01T16:31:29;12.10;63.70
37560;DHT22;23398;50.928;7.084;2023-02-01T16:33:56;12.10;63.90
37560;DHT22;23398;50.928;7.084;2023-02-01T16:36:22;12.10;64.20
37560;DHT22;23398;50.928;7.084;2023-02-01T16:38:48;12.10;64.50
37560;DHT22;23398;50.928;7.084;2023-02-01T16:41:16;12.10;64.70
37560;DHT22;23398;50.928;7.084;2023-02-01T16:43:42;12.00;64.70
37560;DHT22;23398;50.928;7.084;2023-02-01T16:46:20;12.00;64.90
37560;DHT22;23398;50.928;7.084;2023-02-01T16:49:00;12.00;65.10
37560;DHT22;23398;50.928;7.084;2023-02-01T16:51:29;11.90;65.20
37560;DHT22;23398;50.928;7.084;2023-02-01T16:53:57;11.90;65.20
37560;DHT22;23398;50.928;7.084;2023-02-01T16:56:28;11.90;65.40
37560;DHT22;23398;50.928;7.084;2023-02-01T16:58:54;11.90;65.60
37560;DHT22;23398;50.928;7.084;2023-02-01T17:01:20;11.80;65.80
37560;DHT22;23398;50.928;7.084;2023-02-01T17:03:46;11.80;66.00
37560;DHT22;23398;50.928;7.084;2023-02-01T17:06:18;11.80;66.10
37560;DHT22;23398;50.928;7.084;2023-02-01T17:08:50;11.80;66.40
37560;DHT22;23398;50.928;7.084;2023-02-01T17:11:16;11.70;66.50
37560;DHT22;23398;50.928;7.084;2023-02-01T17:13:43;11.70;66.80
37560;DHT22;23398;50.928;7.084;2023-02-01T17:16:29;11.70;67.20
37560;DHT22;23398;50.928;7.084;2023-02-01T17:19:03;11.70;67.70
37560;DHT22;23398;50.928;7.084;2023-02-01T17:21:36;11.70;67.60
37560;DHT22;23398;50.928;7.084;2023-02-01T17:24:02;11.60;67.50
37560;DHT22;23398;50.928;7.084;2023-02-01T17:26:28;11.60;67.70
37560;DHT22;23398;50.928;7.084;2023-02-01T17:28:53;11.60;67.90
37560;DHT22;23398;50.928;7.084;2023-02-01T17:31:19;11.50;68.00
37560;DHT22;23398;50.928;7.084;2023-02-01T17:33:44;11.50;68.10
37560;DHT22;23398;50.928;7.084;2023-02-01T17:36:13;11.50;68.30
37560;DHT22;23398;50.928;7.084;2023-02-01T17:38:39;11.70;68.80
37560;DHT22;23398;50.928;7.084;2023-02-01T17:41:05;11.40;68.70
37560;DHT22;23398;50.928;7.084;2023-02-01T17:43:31;11.40;69.00
37560;DHT22;23398;50.928;7.084;2023-02-01T17:46:25;11.40;69.40
37560;DHT22;23398;50.928;7.084;2023-02-01T17:48:53;11.40;70.90
37560;DHT22;23398;50.928;7.084;2023-02-01T17:51:26;11.40;69.70
37560;DHT22;23398;50.928;7.084;2023-02-01T17:53:53;11.30;70.00